SWVM weather

Public forecast

Using degrees Celsius for public forecast. Weather courtesy of forecast.io.

Closest aviation weather report (METAR) to Vinte e Oito Helipad

Report is more than 6 hours old.

Closest report is Carlos Prates Airport, 3.7 nm (6.8 km) NNW. Retrieved 2020/08/10 20:00 UTC (6 hours ago):

SBPR 102000Z 07006KT 9999 FEW025 BKN080 23/10 Q1021

Closest aviation forecast (TAF) to Vinte e Oito Helipad

Forecast is more than 12 hours old.

Closest forecast is Pampulha - Carlos Drummond de Andrade Airport, 6.7 nm (12.4 km) N. Retrieved 2012/03/26 18:12 UTC (8 years ago):

TAF SBBH 261639Z 2618/2706 09005KT 9999 SCT030 TX28/2618Z TN20/2705Z PROB30 2619/2624 8000 TSRA BKN035 FEW045CB RMK PGG